sensor_id;sensor_type;location;lat;lon;timestamp;temperature;humidity
75931;DHT22;64609;47.052;15.462;2023-04-09T00:00:35;10.40;63.50
75931;DHT22;64609;47.052;15.462;2023-04-09T00:03:01;10.40;63.60
75931;DHT22;64609;47.052;15.462;2023-04-09T00:05:26;10.40;63.20
75931;DHT22;64609;47.052;15.462;2023-04-09T00:07:52;10.30;63.40
75931;DHT22;64609;47.052;15.462;2023-04-09T00:10:18;10.20;63.60
75931;DHT22;64609;47.052;15.462;2023-04-09T00:12:44;10.10;63.70
75931;DHT22;64609;47.052;15.462;2023-04-09T00:15:10;10.10;63.80
75931;DHT22;64609;47.052;15.462;2023-04-09T00:17:35;10.00;64.00
75931;DHT22;64609;47.052;15.462;2023-04-09T00:20:01;9.90;64.10
75931;DHT22;64609;47.052;15.462;2023-04-09T00:22:27;9.90;64.30
75931;DHT22;64609;47.052;15.462;2023-04-09T00:24:52;9.90;64.30
75931;DHT22;64609;47.052;15.462;2023-04-09T00:27:18;9.90;64.70
75931;DHT22;64609;47.052;15.462;2023-04-09T00:29:44;10.00;64.40
75931;DHT22;64609;47.052;15.462;2023-04-09T00:32:10;10.00;64.30
75931;DHT22;64609;47.052;15.462;2023-04-09T00:34:35;10.00;64.20
75931;DHT22;64609;47.052;15.462;2023-04-09T00:37:01;10.00;64.70
75931;DHT22;64609;47.052;15.462;2023-04-09T00:39:27;10.10;64.40
75931;DHT22;64609;47.052;15.462;2023-04-09T00:41:59;10.10;64.00
75931;DHT22;64609;47.052;15.462;2023-04-09T00:44:27;10.10;64.00
75931;DHT22;64609;47.052;15.462;2023-04-09T00:46:53;10.00;64.30
75931;DHT22;64609;47.052;15.462;2023-04-09T00:49:20;10.00;64.50
75931;DHT22;64609;47.052;15.462;2023-04-09T00:51:47;10.00;64.70
75931;DHT22;64609;47.052;15.462;2023-04-09T00:54:13;9.90;64.80
75931;DHT22;64609;47.052;15.462;2023-04-09T00:56:39;9.90;65.00
75931;DHT22;64609;47.052;15.462;2023-04-09T00:59:06;9.80;64.90
75931;DHT22;64609;47.052;15.462;2023-04-09T01:01:32;9.80;65.10
75931;DHT22;64609;47.052;15.462;2023-04-09T01:03:58;9.80;64.80
75931;DHT22;64609;47.052;15.462;2023-04-09T01:06:48;9.80;64.90
75931;DHT22;64609;47.052;15.462;2023-04-09T01:09:36;9.70;64.70
75931;DHT22;64609;47.052;15.462;2023-04-09T01:12:17;9.70;64.90
75931;DHT22;64609;47.052;15.462;2023-04-09T01:14:53;9.60;65.10
75931;DHT22;64609;47.052;15.462;2023-04-09T01:17:29;9.70;65.50
75931;DHT22;64609;47.052;15.462;2023-04-09T01:30:28;9.70;65.80
75931;DHT22;64609;47.052;15.462;2023-04-09T01:32:56;9.70;65.50
75931;DHT22;64609;47.052;15.462;2023-04-09T01:35:22;9.80;65.50
75931;DHT22;64609;47.052;15.462;2023-04-09T01:37:51;9.80;65.50
75931;DHT22;64609;47.052;15.462;2023-04-09T01:40:17;9.80;65.60
75931;DHT22;64609;47.052;15.462;2023-04-09T01:42:43;9.70;65.40
75931;DHT22;64609;47.052;15.462;2023-04-09T01:45:10;9.70;65.50
75931;DHT22;64609;47.052;15.462;2023-04-09T01:47:38;9.60;65.70
75931;DHT22;64609;47.052;15.462;2023-04-09T01:50:04;9.60;65.80
75931;DHT22;64609;47.052;15.462;2023-04-09T01:52:30;9.60;66.10
75931;DHT22;64609;47.052;15.462;2023-04-09T01:54:56;9.60;66.10
75931;DHT22;64609;47.052;15.462;2023-04-09T01:57:22;9.70;66.20
75931;DHT22;64609;47.052;15.462;2023-04-09T01:59:48;9.70;66.10
75931;DHT22;64609;47.052;15.462;2023-04-09T02:02:19;9.70;65.90
75931;DHT22;64609;47.052;15.462;2023-04-09T02:04:48;9.60;65.70
75931;DHT22;64609;47.052;15.462;2023-04-09T02:07:28;9.50;65.70
75931;DHT22;64609;47.052;15.462;2023-04-09T02:09:58;9.50;66.10
75931;DHT22;64609;47.052;15.462;2023-04-09T02:12:25;9.50;66.50
75931;DHT22;64609;47.052;15.462;2023-04-09T02:14:52;9.50;66.60
75931;DHT22;64609;47.052;15.462;2023-04-09T02:17:19;9.50;66.40
75931;DHT22;64609;47.052;15.462;2023-04-09T02:19:46;9.50;66.50
75931;DHT22;64609;47.052;15.462;2023-04-09T02:22:12;9.50;66.60
75931;DHT22;64609;47.052;15.462;2023-04-09T02:24:39;9.50;66.70
75931;DHT22;64609;47.052;15.462;2023-04-09T02:27:05;9.60;66.90
75931;DHT22;64609;47.052;15.462;2023-04-09T02:29:31;9.60;66.60
75931;DHT22;64609;47.052;15.462;2023-04-09T02:31:57;9.70;66.50
75931;DHT22;64609;47.052;15.462;2023-04-09T02:34:23;9.60;66.20
75931;DHT22;64609;47.052;15.462;2023-04-09T02:36:49;9.50;66.40
75931;DHT22;64609;47.052;15.462;2023-04-09T02:39:15;9.50;66.50
75931;DHT22;64609;47.052;15.462;2023-04-09T02:41:40;9.50;66.50
75931;DHT22;64609;47.052;15.462;2023-04-09T02:44:06;9.50;66.70
75931;DHT22;64609;47.052;15.462;2023-04-09T02:46:32;9.50;66.90
75931;DHT22;64609;47.052;15.462;2023-04-09T02:48:57;9.50;66.70
75931;DHT22;64609;47.052;15.462;2023-04-09T02:51:23;9.50;66.70
75931;DHT22;64609;47.052;15.462;2023-04-09T02:53:49;9.40;66.80
75931;DHT22;64609;47.052;15.462;2023-04-09T02:56:14;9.40;66.90
75931;DHT22;64609;47.052;15.462;2023-04-09T02:58:40;9.40;67.00
75931;DHT22;64609;47.052;15.462;2023-04-09T03:01:06;9.50;66.90
75931;DHT22;64609;47.052;15.462;2023-04-09T03:03:31;9.40;66.80
75931;DHT22;64609;47.052;15.462;2023-04-09T03:05:57;9.40;67.10
75931;DHT22;64609;47.052;15.462;2023-04-09T03:08:22;9.40;67.00
75931;DHT22;64609;47.052;15.462;2023-04-09T03:10:48;9.40;67.00
75931;DHT22;64609;47.052;15.462;2023-04-09T03:13:14;9.40;67.00
75931;DHT22;64609;47.052;15.462;2023-04-09T03:15:39;9.40;67.00
75931;DHT22;64609;47.052;15.462;2023-04-09T03:18:05;9.40;67.20
75931;DHT22;64609;47.052;15.462;2023-04-09T03:20:31;9.40;67.10
75931;DHT22;64609;47.052;15.462;2023-04-09T03:22:57;9.50;67.20
75931;DHT22;64609;47.052;15.462;2023-04-09T03:25:22;9.50;67.20
75931;DHT22;64609;47.052;15.462;2023-04-09T03:27:48;9.50;67.10
75931;DHT22;64609;47.052;15.462;2023-04-09T03:30:14;9.50;67.20
75931;DHT22;64609;47.052;15.462;2023-04-09T03:32:39;9.50;67.10
75931;DHT22;64609;47.052;15.462;2023-04-09T03:35:05;9.50;67.00
75931;DHT22;64609;47.052;15.462;2023-04-09T03:37:31;9.50;67.10
75931;DHT22;64609;47.052;15.462;2023-04-09T03:39:56;9.40;67.20
75931;DHT22;64609;47.052;15.462;2023-04-09T03:42:22;9.40;67.50
75931;DHT22;64609;47.052;15.462;2023-04-09T03:44:48;9.30;67.50
75931;DHT22;64609;47.052;15.462;2023-04-09T03:47:13;9.20;67.50
75931;DHT22;64609;47.052;15.462;2023-04-09T03:49:39;9.20;67.60
75931;DHT22;64609;47.052;15.462;2023-04-09T03:52:05;9.20;67.70
75931;DHT22;64609;47.052;15.462;2023-04-09T03:54:31;9.20;67.60
75931;DHT22;64609;47.052;15.462;2023-04-09T03:56:57;9.20;67.70
75931;DHT22;64609;47.052;15.462;2023-04-09T03:59:23;9.20;67.70
75931;DHT22;64609;47.052;15.462;2023-04-09T04:01:48;9.20;67.70
75931;DHT22;64609;47.052;15.462;2023-04-09T04:04:14;9.20;67.70
75931;DHT22;64609;47.052;15.462;2023-04-09T04:06:40;9.20;67.90
75931;DHT22;64609;47.052;15.462;2023-04-09T04:09:06;9.20;67.80
75931;DHT22;64609;47.052;15.462;2023-04-09T04:11:31;9.20;67.90
75931;DHT22;64609;47.052;15.462;2023-04-09T04:13:57;9.10;67.70
75931;DHT22;64609;47.052;15.462;2023-04-09T04:16:23;9.10;68.10
75931;DHT22;64609;47.052;15.462;2023-04-09T04:18:49;9.10;68.10
75931;DHT22;64609;47.052;15.462;2023-04-09T04:21:15;9.10;68.20
75931;DHT22;64609;47.052;15.462;2023-04-09T04:23:41;9.10;68.10
75931;DHT22;64609;47.052;15.462;2023-04-09T04:26:10;9.10;68.30
75931;DHT22;64609;47.052;15.462;2023-04-09T04:28:36;9.10;68.30
75931;DHT22;64609;47.052;15.462;2023-04-09T04:31:06;9.00;68.30
75931;DHT22;64609;47.052;15.462;2023-04-09T04:33:31;9.00;68.40
75931;DHT22;64609;47.052;15.462;2023-04-09T04:36:08;9.00;68.40
75931;DHT22;64609;47.052;15.462;2023-04-09T04:38:34;9.00;68.40
75931;DHT22;64609;47.052;15.462;2023-04-09T04:41:00;9.10;68.50
75931;DHT22;64609;47.052;15.462;2023-04-09T04:43:26;9.00;68.40
75931;DHT22;64609;47.052;15.462;2023-04-09T04:45:51;9.00;68.50
75931;DHT22;64609;47.052;15.462;2023-04-09T04:48:17;9.00;68.60
75931;DHT22;64609;47.052;15.462;2023-04-09T04:50:43;9.10;68.70
75931;DHT22;64609;47.052;15.462;2023-04-09T04:53:08;9.10;68.40
75931;DHT22;64609;47.052;15.462;2023-04-09T04:55:35;9.20;68.30
75931;DHT22;64609;47.052;15.462;2023-04-09T04:58:01;9.10;68.40
75931;DHT22;64609;47.052;15.462;2023-04-09T05:00:27;9.20;68.60
75931;DHT22;64609;47.052;15.462;2023-04-09T05:02:52;9.20;68.50
75931;DHT22;64609;47.052;15.462;2023-04-09T05:05:18;9.30;68.40
75931;DHT22;64609;47.052;15.462;2023-04-09T05:07:43;9.40;68.50
75931;DHT22;64609;47.052;15.462;2023-04-09T05:10:09;9.50;68.20
75931;DHT22;64609;47.052;15.462;2023-04-09T05:12:35;9.50;68.00
75931;DHT22;64609;47.052;15.462;2023-04-09T05:15:01;9.60;67.90
75931;DHT22;64609;47.052;15.462;2023-04-09T05:17:27;9.60;67.80
75931;DHT22;64609;47.052;15.462;2023-04-09T05:19:53;9.70;67.50
75931;DHT22;64609;47.052;15.462;2023-04-09T05:22:19;9.70;67.30
75931;DHT22;64609;47.052;15.462;2023-04-09T05:24:45;9.80;67.10
75931;DHT22;64609;47.052;15.462;2023-04-09T05:27:11;9.70;67.10
75931;DHT22;64609;47.052;15.462;2023-04-09T05:29:36;9.80;67.30
75931;DHT22;64609;47.052;15.462;2023-04-09T05:32:02;9.80;67.30
75931;DHT22;64609;47.052;15.462;2023-04-09T05:34:28;9.80;66.80
75931;DHT22;64609;47.052;15.462;2023-04-09T05:36:54;9.80;67.00
75931;DHT22;64609;47.052;15.462;2023-04-09T05:39:20;9.70;66.80
75931;DHT22;64609;47.052;15.462;2023-04-09T05:41:45;9.70;66.80
75931;DHT22;64609;47.052;15.462;2023-04-09T05:44:11;9.80;66.90
75931;DHT22;64609;47.052;15.462;2023-04-09T05:46:37;9.80;66.70
75931;DHT22;64609;47.052;15.462;2023-04-09T05:49:03;9.80;67.20
75931;DHT22;64609;47.052;15.462;2023-04-09T05:51:29;9.80;67.70
75931;DHT22;64609;47.052;15.462;2023-04-09T05:53:54;10.00;67.50
75931;DHT22;64609;47.052;15.462;2023-04-09T05:56:20;9.90;67.00
75931;DHT22;64609;47.052;15.462;2023-04-09T05:58:48;9.80;65.90
75931;DHT22;64609;47.052;15.462;2023-04-09T06:01:14;9.70;66.50
75931;DHT22;64609;47.052;15.462;2023-04-09T06:03:40;9.80;66.90
75931;DHT22;64609;47.052;15.462;2023-04-09T06:06:05;9.90;66.90
75931;DHT22;64609;47.052;15.462;2023-04-09T06:08:31;10.00;66.40
75931;DHT22;64609;47.052;15.462;2023-04-09T06:10:57;10.00;66.10
75931;DHT22;64609;47.052;15.462;2023-04-09T06:13:23;10.00;65.60
75931;DHT22;64609;47.052;15.462;2023-04-09T06:15:49;9.90;65.60
75931;DHT22;64609;47.052;15.462;2023-04-09T06:18:14;10.00;65.90
75931;DHT22;64609;47.052;15.462;2023-04-09T06:20:40;10.10;66.10
75931;DHT22;64609;47.052;15.462;2023-04-09T06:23:06;10.20;66.50
75931;DHT22;64609;47.052;15.462;2023-04-09T06:25:32;10.40;65.30
75931;DHT22;64609;47.052;15.462;2023-04-09T06:27:57;10.50;65.00
75931;DHT22;64609;47.052;15.462;2023-04-09T06:30:23;10.50;63.30
75931;DHT22;64609;47.052;15.462;2023-04-09T06:32:50;10.50;63.20
75931;DHT22;64609;47.052;15.462;2023-04-09T06:35:15;10.40;63.90
75931;DHT22;64609;47.052;15.462;2023-04-09T06:37:41;10.50;63.40
75931;DHT22;64609;47.052;15.462;2023-04-09T06:40:07;10.40;63.00
75931;DHT22;64609;47.052;15.462;2023-04-09T06:42:33;10.40;63.30
75931;DHT22;64609;47.052;15.462;2023-04-09T06:44:58;10.40;63.50
75931;DHT22;64609;47.052;15.462;2023-04-09T06:47:24;10.50;63.40
75931;DHT22;64609;47.052;15.462;2023-04-09T06:49:50;10.60;63.20
75931;DHT22;64609;47.052;15.462;2023-04-09T06:52:16;10.70;63.30
75931;DHT22;64609;47.052;15.462;2023-04-09T06:54:41;10.70;62.80
75931;DHT22;64609;47.052;15.462;2023-04-09T06:57:07;10.70;63.30
75931;DHT22;64609;47.052;15.462;2023-04-09T06:59:33;10.70;63.20
75931;DHT22;64609;47.052;15.462;2023-04-09T07:01:59;10.70;64.10
75931;DHT22;64609;47.052;15.462;2023-04-09T07:04:25;10.80;63.10
75931;DHT22;64609;47.052;15.462;2023-04-09T07:06:51;10.80;63.50
75931;DHT22;64609;47.052;15.462;2023-04-09T07:09:19;10.90;63.40
75931;DHT22;64609;47.052;15.462;2023-04-09T07:11:45;10.90;63.00
75931;DHT22;64609;47.052;15.462;2023-04-09T07:14:10;11.00;62.80
75931;DHT22;64609;47.052;15.462;2023-04-09T07:16:36;11.00;62.20
75931;DHT22;64609;47.052;15.462;2023-04-09T07:19:02;10.90;62.10
75931;DHT22;64609;47.052;15.462;2023-04-09T07:21:27;11.00;62.60
75931;DHT22;64609;47.052;15.462;2023-04-09T07:23:53;11.00;62.60
75931;DHT22;64609;47.052;15.462;2023-04-09T07:26:20;11.00;62.60
75931;DHT22;64609;47.052;15.462;2023-04-09T07:28:46;11.00;62.70
75931;DHT22;64609;47.052;15.462;2023-04-09T07:31:11;11.00;62.70
75931;DHT22;64609;47.052;15.462;2023-04-09T07:33:37;11.10;62.90
75931;DHT22;64609;47.052;15.462;2023-04-09T07:36:03;11.10;62.50
75931;DHT22;64609;47.052;15.462;2023-04-09T07:38:29;11.10;62.20
75931;DHT22;64609;47.052;15.462;2023-04-09T07:40:54;11.20;62.70
75931;DHT22;64609;47.052;15.462;2023-04-09T07:43:20;11.20;62.00
75931;DHT22;64609;47.052;15.462;2023-04-09T07:45:49;11.30;61.80
75931;DHT22;64609;47.052;15.462;2023-04-09T07:48:17;11.40;61.80
75931;DHT22;64609;47.052;15.462;2023-04-09T07:50:43;11.40;61.70
75931;DHT22;64609;47.052;15.462;2023-04-09T07:53:12;11.50;60.80
75931;DHT22;64609;47.052;15.462;2023-04-09T07:55:39;11.50;60.70
75931;DHT22;64609;47.052;15.462;2023-04-09T07:58:05;11.50;60.00
75931;DHT22;64609;47.052;15.462;2023-04-09T08:00:31;11.50;60.80
75931;DHT22;64609;47.052;15.462;2023-04-09T08:02:57;11.50;59.90
75931;DHT22;64609;47.052;15.462;2023-04-09T08:05:23;11.60;60.20
75931;DHT22;64609;47.052;15.462;2023-04-09T08:07:52;11.70;60.00
75931;DHT22;64609;47.052;15.462;2023-04-09T08:10:20;11.70;60.00
75931;DHT22;64609;47.052;15.462;2023-04-09T08:12:47;11.70;60.20
75931;DHT22;64609;47.052;15.462;2023-04-09T08:15:13;11.70;59.90
75931;DHT22;64609;47.052;15.462;2023-04-09T08:17:39;11.60;60.10
75931;DHT22;64609;47.052;15.462;2023-04-09T08:20:05;11.60;60.10
75931;DHT22;64609;47.052;15.462;2023-04-09T08:22:31;11.60;60.40
75931;DHT22;64609;47.052;15.462;2023-04-09T08:24:57;11.70;60.80
75931;DHT22;64609;47.052;15.462;2023-04-09T08:27:23;11.70;60.50
75931;DHT22;64609;47.052;15.462;2023-04-09T08:29:49;11.70;60.60
75931;DHT22;64609;47.052;15.462;2023-04-09T08:32:15;11.70;60.00
75931;DHT22;64609;47.052;15.462;2023-04-09T08:34:41;11.60;60.10
75931;DHT22;64609;47.052;15.462;2023-04-09T08:37:07;11.40;59.70
75931;DHT22;64609;47.052;15.462;2023-04-09T08:39:33;11.40;60.30
75931;DHT22;64609;47.052;15.462;2023-04-09T08:41:59;11.30;60.20
75931;DHT22;64609;47.052;15.462;2023-04-09T08:44:26;11.30;60.80
75931;DHT22;64609;47.052;15.462;2023-04-09T08:46:52;11.20;60.50
75931;DHT22;64609;47.052;15.462;2023-04-09T08:49:18;11.20;60.60
75931;DHT22;64609;47.052;15.462;2023-04-09T08:51:46;11.30;60.60
75931;DHT22;64609;47.052;15.462;2023-04-09T08:54:14;11.30;60.30
75931;DHT22;64609;47.052;15.462;2023-04-09T08:56:40;11.30;61.30
75931;DHT22;64609;47.052;15.462;2023-04-09T08:59:06;11.10;60.50
75931;DHT22;64609;47.052;15.462;2023-04-09T09:01:31;11.10;60.50
75931;DHT22;64609;47.052;15.462;2023-04-09T09:06:24;11.20;61.10
75931;DHT22;64609;47.052;15.462;2023-04-09T09:09:13;11.40;61.60
75931;DHT22;64609;47.052;15.462;2023-04-09T09:11:41;11.40;60.70
75931;DHT22;64609;47.052;15.462;2023-04-09T09:14:08;11.30;60.80
75931;DHT22;64609;47.052;15.462;2023-04-09T09:16:39;11.30;61.00
75931;DHT22;64609;47.052;15.462;2023-04-09T09:19:07;11.30;61.30
75931;DHT22;64609;47.052;15.462;2023-04-09T09:21:33;11.20;61.30
75931;DHT22;64609;47.052;15.462;2023-04-09T09:24:01;11.30;62.00
75931;DHT22;64609;47.052;15.462;2023-04-09T09:26:28;11.20;61.60
75931;DHT22;64609;47.052;15.462;2023-04-09T09:28:55;11.20;61.80
75931;DHT22;64609;47.052;15.462;2023-04-09T09:31:23;11.20;62.10
75931;DHT22;64609;47.052;15.462;2023-04-09T09:33:50;11.10;62.50
75931;DHT22;64609;47.052;15.462;2023-04-09T09:36:32;11.20;63.60
75931;DHT22;64609;47.052;15.462;2023-04-09T09:38:59;11.30;62.90
75931;DHT22;64609;47.052;15.462;2023-04-09T09:41:28;11.40;62.60
75931;DHT22;64609;47.052;15.462;2023-04-09T09:43:54;11.40;62.70
75931;DHT22;64609;47.052;15.462;2023-04-09T09:46:20;11.40;62.30
75931;DHT22;64609;47.052;15.462;2023-04-09T09:48:46;11.50;62.70
75931;DHT22;64609;47.052;15.462;2023-04-09T09:51:13;11.80;63.10
75931;DHT22;64609;47.052;15.462;2023-04-09T09:53:42;12.00;61.00
75931;DHT22;64609;47.052;15.462;2023-04-09T09:56:14;12.10;60.90
75931;DHT22;64609;47.052;15.462;2023-04-09T09:58:43;12.40;61.20
75931;DHT22;64609;47.052;15.462;2023-04-09T10:01:12;12.80;61.80
75931;DHT22;64609;47.052;15.462;2023-04-09T10:03:39;13.10;61.00
75931;DHT22;64609;47.052;15.462;2023-04-09T10:06:08;13.20;60.20
75931;DHT22;64609;47.052;15.462;2023-04-09T10:08:35;13.40;59.20
75931;DHT22;64609;47.052;15.462;2023-04-09T10:11:02;13.50;58.70
75931;DHT22;64609;47.052;15.462;2023-04-09T10:13:42;13.50;55.70
75931;DHT22;64609;47.052;15.462;2023-04-09T10:16:10;13.70;57.10
75931;DHT22;64609;47.052;15.462;2023-04-09T10:18:37;14.00;55.90
75931;DHT22;64609;47.052;15.462;2023-04-09T10:21:13;14.30;55.40
75931;DHT22;64609;47.052;15.462;2023-04-09T10:23:43;14.40;54.80
75931;DHT22;64609;47.052;15.462;2023-04-09T10:26:09;14.10;54.60
75931;DHT22;64609;47.052;15.462;2023-04-09T10:28:39;14.10;54.90
75931;DHT22;64609;47.052;15.462;2023-04-09T10:31:06;14.10;54.40
75931;DHT22;64609;47.052;15.462;2023-04-09T10:33:32;14.00;55.60
75931;DHT22;64609;47.052;15.462;2023-04-09T10:36:02;14.00;55.10
75931;DHT22;64609;47.052;15.462;2023-04-09T10:38:39;13.90;54.90
75931;DHT22;64609;47.052;15.462;2023-04-09T10:41:24;13.90;54.90
75931;DHT22;64609;47.052;15.462;2023-04-09T10:43:52;14.10;55.10
75931;DHT22;64609;47.052;15.462;2023-04-09T10:46:34;14.20;54.70
75931;DHT22;64609;47.052;15.462;2023-04-09T10:51:35;14.40;54.40
75931;DHT22;64609;47.052;15.462;2023-04-09T10:54:48;14.70;53.50
75931;DHT22;64609;47.052;15.462;2023-04-09T10:57:24;14.70;52.60
75931;DHT22;64609;47.052;15.462;2023-04-09T10:59:54;14.70;53.80
75931;DHT22;64609;47.052;15.462;2023-04-09T11:10:33;15.80;51.10
75931;DHT22;64609;47.052;15.462;2023-04-09T11:13:00;15.50;49.40
75931;DHT22;64609;47.052;15.462;2023-04-09T11:15:26;15.50;49.90
75931;DHT22;64609;47.052;15.462;2023-04-09T11:17:52;15.20;49.10
75931;DHT22;64609;47.052;15.462;2023-04-09T11:20:22;15.40;50.20
75931;DHT22;64609;47.052;15.462;2023-04-09T11:22:50;15.80;50.60
75931;DHT22;64609;47.052;15.462;2023-04-09T11:25:27;16.10;49.10
75931;DHT22;64609;47.052;15.462;2023-04-09T11:27:54;16.30;49.80
75931;DHT22;64609;47.052;15.462;2023-04-09T11:30:20;16.40;48.60
75931;DHT22;64609;47.052;15.462;2023-04-09T11:32:47;16.50;48.20
75931;DHT22;64609;47.052;15.462;2023-04-09T11:35:20;16.80;48.40
75931;DHT22;64609;47.052;15.462;2023-04-09T11:37:47;16.90;47.60
75931;DHT22;64609;47.052;15.462;2023-04-09T11:40:24;17.00;47.30
75931;DHT22;64609;47.052;15.462;2023-04-09T11:42:54;17.20;47.50
75931;DHT22;64609;47.052;15.462;2023-04-09T11:45:23;17.30;47.20
75931;DHT22;64609;47.052;15.462;2023-04-09T11:47:49;17.30;47.00
75931;DHT22;64609;47.052;15.462;2023-04-09T11:50:15;17.40;46.00
75931;DHT22;64609;47.052;15.462;2023-04-09T11:52:42;17.30;46.60
75931;DHT22;64609;47.052;15.462;2023-04-09T11:55:08;17.40;46.30
75931;DHT22;64609;47.052;15.462;2023-04-09T11:57:42;17.20;44.70
75931;DHT22;64609;47.052;15.462;2023-04-09T12:00:12;17.40;45.70
75931;DHT22;64609;47.052;15.462;2023-04-09T12:02:48;17.60;53.50
75931;DHT22;64609;47.052;15.462;2023-04-09T12:05:22;17.40;51.50
75931;DHT22;64609;47.052;15.462;2023-04-09T12:07:49;16.80;48.30
75931;DHT22;64609;47.052;15.462;2023-04-09T12:10:15;16.60;49.30
75931;DHT22;64609;47.052;15.462;2023-04-09T12:12:44;16.50;48.80
75931;DHT22;64609;47.052;15.462;2023-04-09T12:15:22;16.30;48.10
75931;DHT22;64609;47.052;15.462;2023-04-09T12:17:53;16.20;47.90
75931;DHT22;64609;47.052;15.462;2023-04-09T12:20:39;16.30;48.00
75931;DHT22;64609;47.052;15.462;2023-04-09T12:23:05;16.30;47.40
75931;DHT22;64609;47.052;15.462;2023-04-09T12:25:36;15.90;47.40
75931;DHT22;64609;47.052;15.462;2023-04-09T12:28:03;15.60;47.70
75931;DHT22;64609;47.052;15.462;2023-04-09T12:30:30;15.50;48.60
75931;DHT22;64609;47.052;15.462;2023-04-09T12:32:57;15.40;48.70
75931;DHT22;64609;47.052;15.462;2023-04-09T12:35:23;15.20;48.90
75931;DHT22;64609;47.052;15.462;2023-04-09T12:37:49;14.70;49.40
75931;DHT22;64609;47.052;15.462;2023-04-09T12:40:15;14.60;50.20
75931;DHT22;64609;47.052;15.462;2023-04-09T12:42:42;14.60;50.10
75931;DHT22;64609;47.052;15.462;2023-04-09T12:45:09;14.60;50.20
75931;DHT22;64609;47.052;15.462;2023-04-09T12:47:35;14.70;50.30
75931;DHT22;64609;47.052;15.462;2023-04-09T12:50:02;14.80;50.00
75931;DHT22;64609;47.052;15.462;2023-04-09T12:52:29;14.90;50.00
75931;DHT22;64609;47.052;15.462;2023-04-09T12:54:54;15.00;49.60
75931;DHT22;64609;47.052;15.462;2023-04-09T12:57:20;15.10;49.10
75931;DHT22;64609;47.052;15.462;2023-04-09T12:59:46;15.00;49.20
75931;DHT22;64609;47.052;15.462;2023-04-09T13:02:12;14.90;49.60
75931;DHT22;64609;47.052;15.462;2023-04-09T13:04:37;14.80;49.40
75931;DHT22;64609;47.052;15.462;2023-04-09T13:07:03;14.80;49.60
75931;DHT22;64609;47.052;15.462;2023-04-09T13:09:28;14.60;49.90
75931;DHT22;64609;47.052;15.462;2023-04-09T13:11:54;14.50;50.70
75931;DHT22;64609;47.052;15.462;2023-04-09T13:14:20;14.40;51.20
75931;DHT22;64609;47.052;15.462;2023-04-09T13:16:46;14.30;51.50
75931;DHT22;64609;47.052;15.462;2023-04-09T13:19:12;14.00;52.80
75931;DHT22;64609;47.052;15.462;2023-04-09T13:21:38;13.90;53.80
75931;DHT22;64609;47.052;15.462;2023-04-09T13:24:04;13.80;54.50
75931;DHT22;64609;47.052;15.462;2023-04-09T13:26:30;13.70;54.90
75931;DHT22;64609;47.052;15.462;2023-04-09T13:28:56;13.60;55.70
75931;DHT22;64609;47.052;15.462;2023-04-09T13:31:23;13.50;56.20
75931;DHT22;64609;47.052;15.462;2023-04-09T13:33:48;13.50;56.80
75931;DHT22;64609;47.052;15.462;2023-04-09T13:36:14;13.50;57.00
75931;DHT22;64609;47.052;15.462;2023-04-09T13:38:40;13.60;56.60
75931;DHT22;64609;47.052;15.462;2023-04-09T13:41:06;13.60;57.10
75931;DHT22;64609;47.052;15.462;2023-04-09T13:43:32;13.60;56.50
75931;DHT22;64609;47.052;15.462;2023-04-09T13:45:57;13.70;57.10
75931;DHT22;64609;47.052;15.462;2023-04-09T13:48:23;13.60;56.70
75931;DHT22;64609;47.052;15.462;2023-04-09T13:50:49;13.50;56.40
75931;DHT22;64609;47.052;15.462;2023-04-09T13:53:15;13.50;56.50
75931;DHT22;64609;47.052;15.462;2023-04-09T13:55:44;13.50;56.10
75931;DHT22;64609;47.052;15.462;2023-04-09T13:58:11;13.40;56.00
75931;DHT22;64609;47.052;15.462;2023-04-09T14:00:36;13.50;56.00
75931;DHT22;64609;47.052;15.462;2023-04-09T14:03:03;13.60;55.80
75931;DHT22;64609;47.052;15.462;2023-04-09T14:05:29;13.60;55.60
75931;DHT22;64609;47.052;15.462;2023-04-09T14:07:54;13.70;55.20
75931;DHT22;64609;47.052;15.462;2023-04-09T14:10:20;13.60;55.20
75931;DHT22;64609;47.052;15.462;2023-04-09T14:12:47;13.60;55.10
75931;DHT22;64609;47.052;15.462;2023-04-09T14:15:12;13.60;55.40
75931;DHT22;64609;47.052;15.462;2023-04-09T14:17:38;13.60;56.20
75931;DHT22;64609;47.052;15.462;2023-04-09T14:20:05;13.60;55.90
75931;DHT22;64609;47.052;15.462;2023-04-09T14:22:31;13.30;56.00
75931;DHT22;64609;47.052;15.462;2023-04-09T14:24:56;13.20;56.00
75931;DHT22;64609;47.052;15.462;2023-04-09T14:27:22;13.20;56.50
75931;DHT22;64609;47.052;15.462;2023-04-09T14:29:48;13.10;56.50
75931;DHT22;64609;47.052;15.462;2023-04-09T14:32:14;13.10;56.70
75931;DHT22;64609;47.052;15.462;2023-04-09T14:34:40;13.00;57.50
75931;DHT22;64609;47.052;15.462;2023-04-09T14:37:06;12.90;57.20
75931;DHT22;64609;47.052;15.462;2023-04-09T14:39:32;12.90;57.40
75931;DHT22;64609;47.052;15.462;2023-04-09T14:41:57;12.80;57.30
75931;DHT22;64609;47.052;15.462;2023-04-09T14:44:23;12.70;57.90
75931;DHT22;64609;47.052;15.462;2023-04-09T14:46:52;12.60;57.90
75931;DHT22;64609;47.052;15.462;2023-04-09T14:49:19;12.70;58.10
75931;DHT22;64609;47.052;15.462;2023-04-09T14:51:45;12.70;57.80
75931;DHT22;64609;47.052;15.462;2023-04-09T14:54:11;12.70;58.20
75931;DHT22;64609;47.052;15.462;2023-04-09T14:56:36;12.70;58.00
75931;DHT22;64609;47.052;15.462;2023-04-09T14:59:02;12.70;57.80
75931;DHT22;64609;47.052;15.462;2023-04-09T15:01:28;12.80;57.10
75931;DHT22;64609;47.052;15.462;2023-04-09T15:03:54;12.70;56.20
75931;DHT22;64609;47.052;15.462;2023-04-09T15:06:20;12.70;56.90
75931;DHT22;64609;47.052;15.462;2023-04-09T15:08:45;12.60;55.80
75931;DHT22;64609;47.052;15.462;2023-04-09T15:11:15;12.60;56.00
75931;DHT22;64609;47.052;15.462;2023-04-09T15:13:42;12.60;55.90
75931;DHT22;64609;47.052;15.462;2023-04-09T15:16:08;12.60;56.00
75931;DHT22;64609;47.052;15.462;2023-04-09T15:18:33;12.60;56.00
75931;DHT22;64609;47.052;15.462;2023-04-09T15:21:00;12.60;56.60
75931;DHT22;64609;47.052;15.462;2023-04-09T15:23:26;12.60;56.30
75931;DHT22;64609;47.052;15.462;2023-04-09T15:25:51;12.60;56.30
75931;DHT22;64609;47.052;15.462;2023-04-09T15:28:17;12.60;56.30
75931;DHT22;64609;47.052;15.462;2023-04-09T15:30:43;12.80;56.30
75931;DHT22;64609;47.052;15.462;2023-04-09T15:33:09;12.80;56.40
75931;DHT22;64609;47.052;15.462;2023-04-09T15:35:34;12.80;56.50
75931;DHT22;64609;47.052;15.462;2023-04-09T15:38:00;12.80;56.50
75931;DHT22;64609;47.052;15.462;2023-04-09T15:40:26;12.70;56.50
75931;DHT22;64609;47.052;15.462;2023-04-09T15:42:53;12.70;56.90